CST,Max TemperatureF,Mean TemperatureF,Min TemperatureF,Max Dew PointF,MeanDew PointF,Min DewpointF,Max Humidity, Mean Humidity, Min Humidity, Max Sea Level PressureIn, Mean Sea Level PressureIn, Min Sea Level PressureIn, Max VisibilityMiles, Mean VisibilityMiles, Min VisibilityMiles, Max Wind SpeedMPH, Mean Wind SpeedMPH, Max Gust SpeedMPH,PrecipitationIn, CloudCover, Events, WindDirDegrees
2013-2-1,15,10,5,12,3,0,86,71,57,30.34,30.25,30.10,10,7,1,16,10,23,0.00,6,Snow,233
2013-2-2,26,20,15,23,17,12,93,87,80,30.19,30.04,29.97,10,3,1,13,6,18,0.00,8,Snow,245
2013-2-3,23,16,10,19,11,5,93,76,63,30.05,29.99,29.94,10,7,0,16,7,24,0.00,7,Snow,248
2013-2-4,28,24,21,23,21,19,93,85,74,30.04,29.91,29.84,10,6,1,7,3,,0.00,8,Snow,93
2013-2-5,32,24,17,30,23,14,100,87,69,30.05,29.90,29.80,10,7,0,18,4,25,0.00,7,Snow,256
2013-2-6,33,28,23,27,21,16,80,66,55,30.25,30.18,30.06,10,10,7,10,5,,0.00,4,,187
2013-2-7,42,36,30,34,29,27,100,84,61,30.14,29.98,29.83,10,5,1,9,4,16,0.00,7,Rain-Snow,123
2013-2-8,33,32,30,32,27,21,93,83,64,30.36,30.17,29.86,10,9,2,18,11,26,0.00,8,Snow,351
2013-2-9,35,30,24,27,23,19,80,72,60,30.40,30.29,30.12,10,10,10,13,4,18,0.00,4,,153
2013-2-10,50,41,32,45,34,21,100,81,64,30.11,29.82,29.55,10,9,5,20,9,32,0.00,7,Rain,165
2013-2-11,48,39,30,43,25,21,82,68,61,30.01,29.77,29.55,10,10,10,28,19,40,0.00,8,,251
2013-2-12,30,26,21,23,21,19,100,74,64,30.10,30.03,29.94,10,10,7,14,8,22,0.00,7,,263
2013-2-13,44,32,19,30,26,18,100,80,49,29.94,29.80,29.72,10,8,5,13,4,20,0.00,1,,204
2013-2-14,41,36,32,32,28,19,87,74,56,29.96,29.79,29.67,10,10,10,17,9,28,0.00,7,,246
2013-2-15,32,28,24,27,18,12,86,66,51,30.17,30.10,29.97,10,10,5,16,7,21,0.00,7,Snow,322
2013-2-16,26,22,17,14,11,5,86,66,50,30.15,30.12,30.09,10,8,1,13,9,23,0.00,8,Snow,304
2013-2-17,32,24,15,14,9,3,79,54,30,30.21,30.15,30.07,10,10,7,10,7,16,0.00,3,Snow,212
2013-2-18,53,40,26,43,30,10,93,67,47,30.07,29.73,29.44,10,9,4,26,12,40,0.00,4,Rain,178
2013-2-19,33,25,17,32,14,9,93,76,68,30.13,29.85,29.54,10,6,2,24,16,34,0.00,8,Snow,265
2013-2-20,26,20,15,19,13,9,80,74,63,30.33,30.27,30.13,10,7,2,15,11,24,0.00,8,Snow,318
2013-2-21,28,26,23,21,19,18,86,73,69,30.36,30.25,30.02,10,10,2,14,6,29,0.00,8,Snow,79
2013-2-22,33,28,23,32,25,19,100,88,69,30.02,29.88,29.83,10,6,0,15,8,23,0.00,8,Snow,171
2013-2-23,30,28,26,23,20,18,80,72,60,29.96,29.93,29.91,10,10,7,15,9,21,0.00,8,Snow,245
2013-2-24,35,25,15,23,20,14,93,75,56,30.15,30.08,29.96,10,9,5,9,5,,0.00,1,,258
2013-2-25,41,30,19,27,23,18,100,74,49,30.19,30.11,29.98,10,9,5,9,2,,0.00,0,,109
2013-2-26,35,34,32,32,28,21,100,86,56,29.98,29.63,29.48,10,6,2,15,7,30,0.00,6,Rain-Snow,62
2013-2-27,33,32,32,34,32,32,100,99,93,29.64,29.55,29.47,10,4,0,9,4,,0.00,8,Rain-Snow,287
2013-2-28,35,34,32,34,31,27,100,92,80,30.01,29.85,29.65,10,9,3,18,9,28,0.00,8,Rain-Snow,352